Time;durP1;ratioP1;P1;durP2;ratioP2;P2;SDS_P1;SDS_P2;PMS_P1;PMS_P2;Temp;Humidity;BMP_temperature;BMP_pressure;BME280_temperature;BME280_humidity;BME280_pressure;Samples;Min_cycle;Max_cycle;Signal;HPM_P1;HPM_P2
2021/03/27 00:02:07;;;;;;;48.13;30.25;;;205.00;1510.40;;;;;;4785339;30;20039;-68
2021/03/27 00:04:44;;;;;;;51.90;32.38;;;205.00;1510.40;;;;;;4784953;29;20084;-68
2021/03/27 00:07:30;;;;;;;48.20;32.60;;;205.00;1536.00;;;;;;4801582;29;20042;-68
2021/03/27 00:10:24;;;;;;;56.22;34.30;;;205.00;1536.00;;;;;;4791007;29;20042;-68
2021/03/27 00:13:36;;;;;;;48.45;30.23;;;205.00;1510.40;;;;;;4785119;30;20382;-68
2021/03/27 00:16:16;;;;;;;50.60;31.88;;;204.90;1536.00;;;;;;4781351;30;20038;-68
2021/03/27 00:19:00;;;;;;;43.78;28.55;;;204.90;1536.00;;;;;;4792946;29;20512;-68
2021/03/27 00:21:29;;;;;;;50.60;31.25;;;205.00;1536.00;;;;;;4787286;29;20046;-68
2021/03/27 00:24:01;;;;;;;50.92;33.28;;;205.00;1536.00;;;;;;4799890;29;20072;-70
2021/03/27 00:26:27;;;;;;;47.90;31.45;;;204.90;1536.00;;;;;;4786892;29;20047;-68
2021/03/27 00:29:02;;;;;;;57.20;35.30;;;205.00;1561.60;;;;;;4784738;30;20119;-70
2021/03/27 00:31:42;;;;;;;48.60;30.27;;;205.00;1561.60;;;;;;4821989;29;20076;-70
2021/03/27 00:34:12;;;;;;;51.15;31.92;;;204.90;1536.00;;;;;;4824910;29;20057;-68
2021/03/27 00:36:52;;;;;;;51.40;33.08;;;205.00;1536.00;;;;;;4848276;29;20393;-68
2021/03/27 00:39:22;;;;;;;47.17;31.33;;;205.00;1536.00;;;;;;4847399;29;20054;-68
2021/03/27 00:41:53;;;;;;;52.08;33.63;;;204.90;1536.00;;;;;;4824770;29;20086;-68
2021/03/27 00:44:22;;;;;;;53.97;33.15;;;204.90;1536.00;;;;;;4841211;29;20054;-68
2021/03/27 00:46:50;;;;;;;53.05;33.75;;;204.90;1536.00;;;;;;4841239;29;20484;-68
2021/03/27 00:49:22;;;;;;;58.90;35.22;;;204.90;1536.00;;;;;;4841700;29;20068;-68
2021/03/27 00:51:51;;;;;;;55.97;33.95;;;204.90;1536.00;;;;;;4843607;29;20045;-68
2021/03/27 00:54:28;;;;;;;54.70;34.80;;;204.90;1536.00;;;;;;4843693;29;20034;-69
2021/03/27 00:57:20;;;;;;;54.10;35.40;;;204.90;1536.00;;;;;;4841324;29;20090;-69
2021/03/27 01:00:04;;;;;;;58.47;37.20;;;204.90;1536.00;;;;;;4824466;29;20030;-69
2021/03/27 01:02:30;;;;;;;58.63;37.35;;;204.90;1536.00;;;;;;4846007;29;20026;-69
2021/03/27 01:05:00;;;;;;;64.07;39.38;;;204.80;1536.00;;;;;;4842129;29;20058;-70
2021/03/27 01:07:26;;;;;;;68.95;43.63;;;204.80;1536.00;;;;;;4847810;29;20146;-70
2021/03/27 01:10:23;;;;;;;70.30;40.60;;;180.10;1536.00;;;;;;4850919;29;20082;-69
2021/03/27 01:12:51;;;;;;;61.63;39.65;;;180.10;1561.60;;;;;;4840073;29;20026;-70
2021/03/27 01:15:22;;;;;;;58.50;38.15;;;180.10;1536.00;;;;;;4840755;29;20034;-68
2021/03/27 01:17:52;;;;;;;57.90;35.28;;;180.10;1561.60;;;;;;4840495;29;20051;-68
2021/03/27 01:20:22;;;;;;;62.72;38.47;;;180.10;1561.60;;;;;;4838513;29;20155;-69
2021/03/27 01:22:50;;;;;;;72.90;44.80;;;180.10;1536.00;;;;;;4845816;29;20104;-68
2021/03/27 01:25:22;;;;;;;66.32;42.40;;;180.10;1536.00;;;;;;4843347;29;20071;-71
2021/03/27 01:28:01;;;;;;;64.28;40.08;;;180.10;1561.60;;;;;;4849049;29;20075;-70
2021/03/27 01:30:41;;;;;;;66.50;39.08;;;180.00;1561.60;;;;;;4840290;29;20027;-69
2021/03/27 01:33:30;;;;;;;65.70;40.30;;;180.00;1561.60;;;;;;4847185;29;20030;-68
2021/03/27 01:36:07;;;;;;;64.97;41.42;;;180.00;1561.60;;;;;;4764713;30;20069;-69
2021/03/27 01:38:37;;;;;;;57.85;35.83;;;179.90;1561.60;;;;;;4749988;30;20480;-68
2021/03/27 01:41:32;;;;;;;57.60;38.80;;;179.90;1561.60;;;;;;4765887;30;20039;-69
2021/03/27 01:44:26;;;;;;;66.55;36.90;;;179.80;1587.20;;;;;;4765641;30;20028;-69
2021/03/27 01:46:55;;;;;;;57.00;36.72;;;179.80;1587.20;;;;;;4753525;30;20051;-69
2021/03/27 01:49:44;;;;;;;61.75;36.53;;;179.80;1587.20;;;;;;4764492;30;20041;-69
2021/03/27 01:52:19;;;;;;;57.20;38.20;;;179.70;1587.20;;;;;;4754618;30;20422;-68
2021/03/27 01:55:13;;;;;;;64.63;39.13;;;179.70;1587.20;;;;;;4764777;30;20078;-68
2021/03/27 01:57:46;;;;;;;65.60;40.50;;;179.70;1587.20;;;;;;4764824;30;20123;-68
2021/03/27 02:00:29;;;;;;;60.83;39.97;;;179.70;1587.20;;;;;;4764745;30;20040;-68
2021/03/27 02:03:06;;;;;;;66.35;40.25;;;179.60;1587.20;;;;;;4763970;30;20039;-69
2021/03/27 02:05:39;;;;;;;66.30;42.55;;;179.60;1587.20;;;;;;4764431;30;20040;-68
2021/03/27 02:08:18;;;;;;;68.72;44.10;;;179.50;1587.20;;;;;;4763761;30;20032;-68
2021/03/27 02:11:12;;;;;;;69.57;45.05;;;179.50;1612.80;;;;;;4764487;30;20065;-68
2021/03/27 02:13:47;;;;;;;130.23;69.72;;;179.40;1638.40;;;;;;4829503;29;20083;-68
2021/03/27 02:16:24;;;;;;;125.50;72.43;;;179.40;1638.40;;;;;;4824999;29;20040;-68
2021/03/27 02:19:08;;;;;;;84.68;53.72;;;179.30;1664.00;;;;;;4845719;29;20022;-69
2021/03/27 02:22:14;;;;;;;84.93;48.72;;;154.50;1689.60;;;;;;4845311;29;20033;-68
2021/03/27 02:24:58;;;;;;;90.03;49.15;;;154.40;1715.20;;;;;;4832722;29;20122;-68
2021/03/27 02:28:05;;;;;;;97.38;57.05;;;154.30;1715.20;;;;;;4823384;29;20061;-68
2021/03/27 02:30:45;;;;;;;89.30;51.78;;;154.20;1715.20;;;;;;4787200;29;20135;-68
2021/03/27 02:33:27;;;;;;;85.20;54.33;;;154.10;1740.80;;;;;;4784883;29;20036;-68
2021/03/27 02:36:05;;;;;;;111.57;68.53;;;154.00;1740.80;;;;;;4778007;29;20054;-68
2021/03/27 02:38:34;;;;;;;117.53;72.03;;;153.90;1740.80;;;;;;4793644;29;20155;-68
2021/03/27 02:41:17;;;;;;;122.78;75.32;;;153.90;1740.80;;;;;;4789820;29;20604;-68
2021/03/27 02:43:49;;;;;;;115.90;69.18;;;153.90;1740.80;;;;;;4782981;29;20031;-68
2021/03/27 02:46:35;;;;;;;99.88;57.38;;;153.80;1740.80;;;;;;4792405;29;20039;-68
2021/03/27 02:49:21;;;;;;;85.18;53.47;;;153.80;1740.80;;;;;;4783322;30;20039;-68
2021/03/27 02:52:04;;;;;;;81.25;50.45;;;153.70;1740.80;;;;;;4783156;30;20544;-70
2021/03/27 02:54:41;;;;;;;75.20;46.03;;;153.70;1740.80;;;;;;4783001;30;20587;-68
2021/03/27 02:57:22;;;;;;;72.47;45.03;;;153.60;1740.80;;;;;;4782715;29;20042;-68
2021/03/27 03:00:07;;;;;;;84.15;47.67;;;153.60;1766.40;;;;;;4796721;29;20023;-68
2021/03/27 03:02:45;;;;;;;81.60;47.63;;;153.60;1766.40;;;;;;4794630;29;20042;-68
2021/03/27 03:05:22;;;;;;;78.10;46.65;;;153.60;1766.40;;;;;;4788752;29;20406;-67
2021/03/27 03:08:09;;;;;;;79.57;48.70;;;128.90;1766.40;;;;;;4823989;29;20042;-67
2021/03/27 03:10:50;;;;;;;;;;;128.80;1766.40;;;;;;4836024;29;20058;-68
2021/03/27 03:13:45;;;;;;;72.72;43.70;;;128.60;1766.40;;;;;;4824301;29;19966;-68
2021/03/27 03:16:29;;;;;;;74.18;44.17;;;128.70;1792.00;;;;;;4767704;30;20048;-70
2021/03/27 03:19:09;;;;;;;72.53;46.13;;;128.70;1792.00;;;;;;4767358;30;20024;-67
2021/03/27 03:21:45;;;;;;;69.28;46.47;;;128.80;1792.00;;;;;;4767863;30;20486;-67
2021/03/27 03:24:16;;;;;;;71.28;43.35;;;128.80;1792.00;;;;;;4762307;30;20509;-69
2021/03/27 03:27:11;;;;;;;80.35;45.67;;;128.80;1792.00;;;;;;4767808;30;20515;-67
2021/03/27 03:29:57;;;;;;;74.65;44.50;;;128.80;1792.00;;;;;;4766845;30;20032;-70
2021/03/27 03:32:26;;;;;;;73.93;43.85;;;128.80;1766.40;;;;;;4774069;30;20118;-69
2021/03/27 03:34:57;;;;;;;67.95;42.10;;;128.90;1766.40;;;;;;4762536;30;20044;-69
2021/03/27 03:37:34;;;;;;;82.97;48.42;;;128.80;1766.40;;;;;;4752572;30;20052;-69
2021/03/27 03:40:12;;;;;;;77.93;45.55;;;128.80;1792.00;;;;;;4767743;29;20523;-69
2021/03/27 03:43:08;;;;;;;74.07;45.28;;;128.80;1766.40;;;;;;4771504;30;20131;-69
2021/03/27 03:45:55;;;;;;;74.32;44.65;;;128.80;1792.00;;;;;;4767579;30;20095;-69
2021/03/27 03:48:57;;;;;;;79.07;46.10;;;128.80;1766.40;;;;;;4766869;30;20071;-69
2021/03/27 03:51:46;;;;;;;72.13;44.40;;;128.80;1792.00;;;;;;4762524;30;20035;-69
2021/03/27 03:54:16;;;;;;;71.57;46.42;;;128.70;1792.00;;;;;;4844363;29;20510;-69
2021/03/27 03:57:13;;;;;;;88.32;51.15;;;128.70;1792.00;;;;;;4850212;29;20120;-69
2021/03/27 03:59:45;;;;;;;92.97;53.28;;;128.70;1817.60;;;;;;4839522;29;20053;-69
2021/03/27 04:02:28;;;;;;;82.15;51.85;;;128.60;1817.60;;;;;;4841620;29;20395;-69
2021/03/27 04:05:03;;;;;;;80.85;48.13;;;128.60;1817.60;;;;;;4842205;29;20033;-69
2021/03/27 04:07:47;;;;;;;79.13;46.78;;;128.50;1817.60;;;;;;4846881;29;20022;-69
2021/03/27 04:10:17;;;;;;;75.28;43.20;;;128.50;1817.60;;;;;;4841959;29;20030;-69
2021/03/27 04:13:00;;;;;;;75.78;47.22;;;128.50;1817.60;;;;;;4842302;29;20112;-70
2021/03/27 04:15:50;;;;;;;78.05;48.25;;;128.50;1843.20;;;;;;4838312;29;20034;-69
2021/03/27 04:18:46;;;;;;;77.82;49.45;;;128.50;1817.60;;;;;;4843134;29;20114;-69
2021/03/27 04:21:19;;;;;;;86.82;49.45;;;128.40;1843.20;;;;;;4847440;29;20028;-69
2021/03/27 04:24:03;;;;;;;86.22;53.72;;;128.40;1843.20;;;;;;4850021;29;20029;-69
2021/03/27 04:26:47;;;;;;;82.32;49.33;;;128.40;1843.20;;;;;;4818648;29;20054;-69
2021/03/27 04:29:27;;;;;;;79.25;48.40;;;128.30;1843.20;;;;;;4839209;29;20022;-69
2021/03/27 04:32:18;;;;;;;82.18;47.03;;;128.30;1843.20;;;;;;4841558;29;20046;-69
2021/03/27 04:35:09;;;;;;;85.45;49.13;;;128.30;1843.20;;;;;;4846369;29;20042;-69
2021/03/27 04:37:48;;;;;;;75.43;47.85;;;128.20;1817.60;;;;;;4770429;30;20045;-69
2021/03/27 04:40:27;;;;;;;73.03;47.17;;;128.20;1843.20;;;;;;4760615;30;20044;-69
2021/03/27 04:42:54;;;;;;;80.13;48.72;;;128.20;1843.20;;;;;;4763020;30;20099;-69
2021/03/27 04:45:27;;;;;;;75.13;45.60;;;128.20;1843.20;;;;;;4761780;30;20032;-69
2021/03/27 04:48:21;;;;;;;74.28;45.30;;;128.10;1843.20;;;;;;4747326;30;20383;-69
2021/03/27 04:51:12;;;;;;;76.93;45.92;;;128.10;1843.20;;;;;;4767816;30;20110;-69
2021/03/27 04:53:55;;;;;;;83.15;47.22;;;128.10;1843.20;;;;;;4770925;30;20050;-69
2021/03/27 04:56:39;;;;;;;73.10;44.47;;;128.20;1843.20;;;;;;4767601;30;20112;-69
2021/03/27 04:59:23;;;;;;;74.28;44.35;;;128.10;1843.20;;;;;;4769278;30;20039;-69
2021/03/27 05:01:51;;;;;;;76.32;47.80;;;128.10;1868.80;;;;;;4764830;30;20043;-70
2021/03/27 05:04:20;;;;;;;75.60;47.33;;;128.10;1868.80;;;;;;4768143;30;20036;-69
2021/03/27 05:06:56;;;;;;;80.75;47.50;;;128.00;1894.40;;;;;;4766925;30;20055;-69
2021/03/27 05:09:48;;;;;;;71.90;45.38;;;128.00;1894.40;;;;;;4762147;30;20127;-69
2021/03/27 05:12:21;;;;;;;74.68;46.97;;;128.00;1894.40;;;;;;4764085;30;20047;-69
2021/03/27 05:14:56;;;;;;;79.80;47.60;;;128.10;1894.40;;;;;;4812660;29;20053;-69
2021/03/27 05:17:37;;;;;;;81.28;45.05;;;128.10;1894.40;;;;;;4826730;29;20038;-69
2021/03/27 05:20:17;;;;;;;77.97;46.70;;;128.10;1894.40;;;;;;4843365;29;20583;-69
2021/03/27 05:22:55;;;;;;;67.28;42.65;;;128.10;1868.80;;;;;;4822064;29;20455;-69
2021/03/27 05:25:32;;;;;;;77.28;46.25;;;128.20;1868.80;;;;;;4847647;29;20089;-68
2021/03/27 05:28:19;;;;;;;69.88;43.58;;;128.20;1868.80;;;;;;4852229;29;20102;-68
2021/03/27 05:30:53;;;;;;;65.47;40.85;;;128.20;1868.80;;;;;;4840377;29;20108;-69
2021/03/27 05:33:43;;;;;;;65.03;40.85;;;128.30;1843.20;;;;;;4852155;29;20112;-70
2021/03/27 05:36:18;;;;;;;68.22;41.17;;;128.30;1843.20;;;;;;4846847;29;20112;-69
2021/03/27 05:39:07;;;;;;;68.17;40.77;;;128.30;1843.20;;;;;;4840689;29;20879;-69
2021/03/27 05:41:42;;;;;;;62.08;39.28;;;128.40;1843.20;;;;;;4838393;29;20276;-68
2021/03/27 05:44:26;;;;;;;63.58;41.08;;;128.40;1817.60;;;;;;4839793;29;20041;-68
2021/03/27 05:47:25;;;;;;;70.47;40.15;;;128.50;1817.60;;;;;;4849661;29;20025;-68
2021/03/27 05:50:12;;;;;;;64.22;37.15;;;128.60;1817.60;;;;;;4844265;29;20049;-68
2021/03/27 05:52:59;;;;;;;65.28;40.50;;;128.60;1792.00;;;;;;4837609;29;20074;-68
2021/03/27 05:56:04;;;;;;;72.93;42.38;;;128.70;1792.00;;;;;;4840180;29;20532;-69
2021/03/27 05:58:46;;;;;;;67.30;39.50;;;128.90;1792.00;;;;;;4782585;29;20142;-68
2021/03/27 06:01:41;;;;;;;61.35;37.85;;;153.60;1792.00;;;;;;4776918;30;20035;-69
2021/03/27 06:04:25;;;;;;;62.13;38.80;;;153.70;1766.40;;;;;;4785409;29;20486;-69
2021/03/27 06:06:59;;;;;;;60.33;37.65;;;153.90;1766.40;;;;;;4783328;29;20035;-69
2021/03/27 06:09:40;;;;;;;57.63;36.85;;;153.90;1740.80;;;;;;4776464;30;20039;-69
2021/03/27 06:12:19;;;;;;;62.83;39.17;;;154.00;1766.40;;;;;;4783386;29;20043;-68
2021/03/27 06:15:20;;;;;;;68.40;40.67;;;154.20;1740.80;;;;;;4784848;29;20048;-69
2021/03/27 06:17:48;;;;;;;69.68;41.88;;;154.40;1740.80;;;;;;4729951;30;20554;-70
2021/03/27 06:20:17;;;;;;;66.72;43.13;;;154.50;1715.20;;;;;;4723803;30;20521;-69
2021/03/27 06:23:17;;;;;;;71.72;44.28;;;179.30;1715.20;;;;;;4726802;30;20048;-69
2021/03/27 06:26:20;;;;;;;57.85;38.38;;;179.60;1715.20;;;;;;4730891;30;20036;-70
2021/03/27 06:29:09;;;;;;;56.28;36.45;;;179.80;1689.60;;;;;;4727857;30;20052;-69
2021/03/27 06:31:52;;;;;;;56.83;36.45;;;180.00;1664.00;;;;;;4730816;30;20063;-70
2021/03/27 06:34:35;;;;;;;54.90;37.05;;;204.80;1664.00;;;;;;4718915;30;20069;-69
2021/03/27 06:37:34;;;;;;;60.85;38.80;;;205.00;1664.00;;;;;;4730957;30;20560;-69
2021/03/27 06:40:23;;;;;;;58.10;37.17;;;205.40;1638.40;;;;;;4675743;30;20053;-69
2021/03/27 06:43:06;;;;;;;58.63;35.70;;;230.40;1612.80;;;;;;4676329;30;20042;-69
2021/03/27 06:45:50;;;;;;;51.38;32.80;;;230.70;1587.20;;;;;;4676542;30;20061;-69
2021/03/27 06:48:31;;;;;;;50.20;33.13;;;231.00;1561.60;;;;;;4677655;30;20046;-70
2021/03/27 06:51:33;;;;;;;49.28;31.45;;;231.30;1536.00;;;;;;4680809;30;20073;-69
2021/03/27 06:54:28;;;;;;;47.65;30.52;;;256.20;1484.80;;;;;;4691808;30;20423;-69
2021/03/27 06:57:30;;;;;;;41.33;26.30;;;256.70;1433.60;;;;;;4700698;30;20099;-70
2021/03/27 07:00:14;;;;;;;43.00;27.00;;;281.60;1433.60;;;;;;4715302;30;20049;-69
2021/03/27 07:03:16;;;;;;;41.95;30.40;;;282.10;1408.00;;;;;;4724911;30;20041;-69
2021/03/27 07:06:04;;;;;;;53.17;32.40;;;282.30;1356.80;;;;;;4715125;30;20076;-69
2021/03/27 07:09:12;;;;;;;35.55;26.25;;;307.30;1356.80;;;;;;4716099;30;20045;-69
2021/03/27 07:12:07;;;;;;;39.65;26.40;;;307.40;1305.60;;;;;;4715218;30;20045;-69
2021/03/27 07:14:48;;;;;;;38.97;26.42;;;307.70;1280.00;;;;;;4715164;30;20107;-69
2021/03/27 07:17:31;;;;;;;38.88;24.13;;;307.90;1254.40;;;;;;4756539;30;20428;-69
2021/03/27 07:20:33;;;;;;;36.25;24.65;;;332.80;1280.00;;;;;;4772899;30;20050;-69
2021/03/27 07:23:05;;;;;;;35.83;24.85;;;333.20;1254.40;;;;;;4772032;30;20031;-69
2021/03/27 07:25:37;;;;;;;35.70;24.10;;;333.40;1228.80;;;;;;4768060;30;20138;-69
2021/03/27 07:28:21;;;;;;;35.88;23.55;;;333.60;1228.80;;;;;;4767322;30;20036;-69
2021/03/27 07:31:21;;;;;;;35.13;25.55;;;358.40;1203.20;;;;;;4810225;29;20046;-69
2021/03/27 07:33:50;;;;;;;34.70;23.33;;;358.80;1152.00;;;;;;4845136;29;20026;-70
2021/03/27 07:36:34;;;;;;;31.55;23.20;;;358.90;1126.40;;;;;;4842291;29;20038;-69
2021/03/27 07:39:06;;;;;;;34.00;23.50;;;359.10;1126.40;;;;;;4845913;29;20101;-69
2021/03/27 07:41:50;;;;;;;34.67;24.58;;;359.10;1100.80;;;;;;4847385;29;20038;-70
2021/03/27 07:44:50;;;;;;;34.95;22.73;;;384.00;1100.80;;;;;;4814474;29;20047;-69
2021/03/27 07:47:53;;;;;;;32.95;22.20;;;384.20;1100.80;;;;;;4835473;29;20030;-70
2021/03/27 07:50:49;;;;;;;37.30;23.60;;;384.60;1075.20;;;;;;4839307;29;20148;-69
2021/03/27 07:53:37;;;;;;;28.50;20.90;;;409.60;1075.20;;;;;;4839401;29;20424;-69
2021/03/27 07:56:11;;;;;;;28.52;19.15;;;410.00;1024.00;;;;;;4841133;29;20029;-70
2021/03/27 07:59:07;;;;;;;28.90;20.02;;;410.30;998.40;;;;;;4841491;29;20050;-70
2021/03/27 08:01:51;;;;;;;26.20;18.88;;;410.30;998.40;;;;;;4832422;29;20026;-70
2021/03/27 08:04:17;;;;;;;29.88;21.67;;;410.50;998.40;;;;;;4836342;29;20429;-70
2021/03/27 08:06:57;;;;;;;32.35;21.55;;;435.30;998.40;;;;;;4836102;29;20531;-69
2021/03/27 08:10:00;;;;;;;24.30;19.48;;;435.40;972.80;;;;;;4841633;29;20041;-70
2021/03/27 08:12:31;;;;;;;26.67;18.48;;;435.50;972.80;;;;;;4766837;30;20105;-70
2021/03/27 08:15:15;;;;;;;27.10;18.42;;;435.50;947.20;;;;;;4766950;30;20039;-69
2021/03/27 08:18:06;;;;;;;24.23;17.30;;;435.50;921.60;;;;;;4755131;30;20052;-69
2021/03/27 08:20:54;;;;;;;29.98;19.33;;;435.90;921.60;;;;;;4762663;30;20036;-70
2021/03/27 08:23:26;;;;;;;24.92;17.95;;;436.00;896.00;;;;;;4765496;30;20097;-70
2021/03/27 08:26:10;;;;;;;25.33;18.58;;;461.10;896.00;;;;;;4751080;30;20125;-69
2021/03/27 08:28:47;;;;;;;28.00;19.23;;;461.30;896.00;;;;;;4766710;30;20437;-69
2021/03/27 08:31:28;;;;;;;21.70;17.52;;;461.70;896.00;;;;;;4766289;30;20042;-70
2021/03/27 08:34:12;;;;;;;22.15;17.80;;;461.70;870.40;;;;;;4765959;30;20043;-70
2021/03/27 08:36:41;;;;;;;21.30;16.67;;;486.50;844.80;;;;;;4764956;30;20134;-69
2021/03/27 08:39:25;;;;;;;22.77;15.77;;;486.70;819.20;;;;;;4766707;30;20035;-70
2021/03/27 08:42:19;;;;;;;19.35;14.77;;;486.80;793.60;;;;;;4771007;30;20034;-69
2021/03/27 08:45:10;;;;;;;22.48;16.52;;;486.80;793.60;;;;;;4751466;30;20496;-70
2021/03/27 08:48:04;;;;;;;21.52;15.07;;;487.20;768.00;;;;;;4751514;30;20176;-70
2021/03/27 08:50:30;;;;;;;22.70;15.70;;;487.10;768.00;;;;;;4834787;29;20022;-70
2021/03/27 08:53:04;;;;;;;19.92;14.55;;;512.00;768.00;;;;;;4840567;29;20026;-70
2021/03/27 08:55:57;;;;;;;20.65;15.27;;;512.20;742.40;;;;;;4840823;29;20041;-70
2021/03/27 08:58:47;;;;;;;18.83;14.48;;;512.10;716.80;;;;;;4834534;29;20487;-70
2021/03/27 09:01:34;;;;;;;19.52;15.27;;;512.30;716.80;;;;;;4838007;29;20464;-70
2021/03/27 09:04:24;;;;;;;16.67;13.48;;;512.40;742.40;;;;;;4840547;29;20113;-70
2021/03/27 09:07:17;;;;;;;32.47;21.33;;;512.80;716.80;;;;;;4824250;29;20044;-70
2021/03/27 09:10:01;;;;;;;31.20;19.17;;;512.80;742.40;;;;;;4840646;29;20499;-70
2021/03/27 09:12:57;;;;;;;24.45;15.40;;;538.00;691.20;;;;;;4839771;29;20072;-70
2021/03/27 09:15:38;;;;;;;17.52;14.27;;;538.20;716.80;;;;;;4836399;29;20087;-70
2021/03/27 09:18:27;;;;;;;17.75;13.57;;;538.50;716.80;;;;;;4839159;29;20125;-69
2021/03/27 09:21:01;;;;;;;17.52;12.80;;;538.50;716.80;;;;;;4821091;29;20083;-70
2021/03/27 09:24:05;;;;;;;21.60;15.50;;;563.40;742.40;;;;;;4822982;29;20088;-69
2021/03/27 09:26:34;;;;;;;22.52;17.58;;;563.40;742.40;;;;;;4836067;29;20045;-70
2021/03/27 09:29:14;;;;;;;24.55;18.00;;;563.40;716.80;;;;;;4838117;29;20030;-70
2021/03/27 09:32:01;;;;;;;21.42;15.13;;;563.80;716.80;;;;;;4835648;29;20041;-70
2021/03/27 09:34:33;;;;;;;25.02;18.15;;;563.80;716.80;;;;;;4837877;29;20506;-69
2021/03/27 09:37:36;;;;;;;25.48;17.05;;;563.80;716.80;;;;;;4838777;29;20038;-70
2021/03/27 09:40:08;;;;;;;22.05;17.02;;;564.00;716.80;;;;;;4821665;29;20042;-70
2021/03/27 09:42:40;;;;;;;26.17;16.77;;;589.10;691.20;;;;;;4836477;29;20045;-70
2021/03/27 09:45:29;;;;;;;23.23;17.50;;;589.40;665.60;;;;;;4838601;29;20018;-70
2021/03/27 09:48:02;;;;;;;18.55;14.98;;;589.40;665.60;;;;;;4839171;29;20030;-70
2021/03/27 09:50:45;;;;;;;18.85;14.95;;;589.50;665.60;;;;;;4838480;29;20026;-70
2021/03/27 09:53:24;;;;;;;21.00;16.20;;;614.70;665.60;;;;;;4837068;29;20037;-70
2021/03/27 09:55:52;;;;;;;23.15;17.55;;;614.80;665.60;;;;;;4839612;29;20117;-71
2021/03/27 09:58:55;;;;;;;24.52;17.25;;;614.70;640.00;;;;;;4823578;29;20034;-71
2021/03/27 10:01:35;;;;;;;20.13;15.93;;;614.90;665.60;;;;;;4822496;29;20179;-70
2021/03/27 10:04:40;;;;;;;23.35;17.30;;;615.20;640.00;;;;;;4839415;29;20036;-70
2021/03/27 10:07:18;;;;;;;20.70;16.73;;;614.90;640.00;;;;;;4764969;30;20044;-70
2021/03/27 10:10:14;;;;;;;25.35;17.95;;;614.90;640.00;;;;;;4764848;30;20126;-71
2021/03/27 10:13:16;;;;;;;20.60;16.20;;;615.30;640.00;;;;;;4762251;30;20036;-70
2021/03/27 10:15:48;;;;;;;22.48;17.20;;;640.20;614.40;;;;;;4757872;30;20153;-71
2021/03/27 10:18:32;;;;;;;23.90;17.48;;;640.50;588.80;;;;;;4763182;30;20028;-72
2021/03/27 10:21:25;;;;;;;25.52;17.58;;;615.10;640.00;;;;;;4774926;29;20148;-71
2021/03/27 10:24:10;;;;;;;24.25;17.33;;;640.30;614.40;;;;;;4759530;30;20044;-71
2021/03/27 10:27:01;;;;;;;24.27;17.45;;;640.40;614.40;;;;;;4760569;30;20094;-70
2021/03/27 10:30:04;;;;;;;20.73;15.60;;;665.60;614.40;;;;;;4771275;30;20134;-69
2021/03/27 10:32:30;;;;;;;21.90;17.15;;;665.70;614.40;;;;;;4758442;30;20048;-70
2021/03/27 10:35:40;;;;;;;20.90;15.93;;;665.90;588.80;;;;;;4769345;30;20129;-70
2021/03/27 10:38:30;;;;;;;23.02;19.90;;;691.60;563.20;;;;;;4760333;30;20043;-70
2021/03/27 10:41:01;;;;;;;20.38;16.35;;;691.70;563.20;;;;;;4764390;30;20488;-70
2021/03/27 10:43:38;;;;;;;24.25;20.38;;;692.10;563.20;;;;;;4817006;29;20041;-70
2021/03/27 10:46:12;;;;;;;26.42;18.70;;;716.90;588.80;;;;;;4837700;29;20034;-70
2021/03/27 10:48:41;;;;;;;31.83;24.02;;;717.10;563.20;;;;;;4837591;29;20026;-68
2021/03/27 10:51:58;;;;;;;28.33;23.05;;;665.90;614.40;;;;;;4837058;29;20057;-70
2021/03/27 10:54:35;;;;;;;23.00;18.27;;;665.90;614.40;;;;;;4765398;30;20058;-71
2021/03/27 10:57:16;;;;;;;23.23;19.38;;;665.70;614.40;;;;;;4761991;30;20043;-72
2021/03/27 10:59:51;;;;;;;22.23;18.60;;;691.50;563.20;;;;;;4762992;30;20052;-73
2021/03/27 11:02:56;;;;;;;21.60;18.90;;;640.90;588.80;;;;;;4764210;30;20163;-72
2021/03/27 11:05:57;;;;;;;34.72;18.77;;;691.30;563.20;;;;;;4762706;30;20039;-74
2021/03/27 11:08:46;;;;;;;21.63;17.42;;;691.90;563.20;;;;;;4748329;30;20541;-70
2021/03/27 11:11:33;;;;;;;25.05;18.20;;;691.70;563.20;;;;;;4762191;30;20084;-70
2021/03/27 11:14:20;;;;;;;21.55;17.55;;;691.80;563.20;;;;;;4747342;30;20602;-70
2021/03/27 11:17:03;;;;;;;29.52;18.70;;;717.10;563.20;;;;;;4761201;30;20047;-70
2021/03/27 11:19:57;;;;;;;27.10;17.50;;;717.60;537.60;;;;;;4746502;30;20482;-68
2021/03/27 11:22:49;;;;;;;28.40;19.33;;;742.80;537.60;;;;;;4759679;30;20036;-68
2021/03/27 11:25:30;;;;;;;20.77;16.58;;;742.70;537.60;;;;;;4762603;30;20146;-70
2021/03/27 11:28:19;;;;;;;29.30;18.10;;;717.00;563.20;;;;;;4757865;30;20117;-70
2021/03/27 11:30:57;;;;;;;43.75;26.17;;;716.80;563.20;;;;;;4809324;29;20807;-68
2021/03/27 11:34:10;;;;;;;18.63;13.80;;;692.00;537.60;;;;;;4819505;29;20037;-68
2021/03/27 11:37:03;;;;;;;26.33;19.67;;;716.90;512.00;;;;;;4804334;29;20408;-67
2021/03/27 11:39:35;;;;;;;21.85;18.50;;;742.60;537.60;;;;;;4821752;29;20144;-67
2021/03/27 11:42:19;;;;;;;26.88;19.65;;;768.10;512.00;;;;;;4804599;29;20030;-68
2021/03/27 11:44:56;;;;;;;52.55;28.95;;;768.10;512.00;;;;;;4820078;29;20113;-67
2021/03/27 11:48:07;;;;;;;32.78;23.98;;;742.60;537.60;;;;;;4793870;29;20038;-68
2021/03/27 11:50:37;;;;;;;22.70;16.00;;;742.40;563.20;;;;;;4746828;30;20036;-67
2021/03/27 11:53:30;;;;;;;27.67;19.73;;;717.30;537.60;;;;;;4732099;30;20048;-67
2021/03/27 11:56:02;;;;;;;20.77;17.67;;;768.00;537.60;;;;;;4745488;30;20048;-67
2021/03/27 11:58:31;;;;;;;18.35;16.35;;;717.60;537.60;;;;;;4746685;30;20082;-67
2021/03/27 12:01:08;;;;;;;26.13;15.07;;;717.50;563.20;;;;;;4744043;30;20041;-67
2021/03/27 12:03:33;;;;;;;24.80;17.55;;;717.40;537.60;;;;;;4746640;30;20106;-67
2021/03/27 12:06:35;;;;;;;22.60;16.35;;;742.80;537.60;;;;;;4745999;30;21061;-68
2021/03/27 12:09:09;;;;;;;30.23;19.98;;;742.90;537.60;;;;;;4740977;30;20186;-67
2021/03/27 12:11:53;;;;;;;22.00;17.73;;;743.30;563.20;;;;;;4738176;30;20036;-67
2021/03/27 12:14:51;;;;;;;30.80;21.73;;;717.50;537.60;;;;;;4737506;30;20068;-69
2021/03/27 12:17:54;;;;;;;20.10;16.45;;;743.00;563.20;;;;;;4742228;30;20082;-68
2021/03/27 12:20:41;;;;;;;19.58;15.85;;;743.00;537.60;;;;;;4740017;30;20538;-69
2021/03/27 12:23:22;;;;;;;23.30;20.25;;;742.90;563.20;;;;;;4741063;30;20100;-67
2021/03/27 12:26:02;;;;;;;25.58;18.27;;;742.40;588.80;;;;;;4745461;30;20592;-70
2021/03/27 12:28:28;;;;;;;19.85;16.80;;;717.30;563.20;;;;;;4830127;29;21296;-68
2021/03/27 12:31:09;;;;;;;24.50;17.73;;;742.60;563.20;;;;;;4838774;29;20040;-68
2021/03/27 12:33:34;;;;;;;18.48;16.15;;;743.10;537.60;;;;;;4837512;29;20136;-67
2021/03/27 12:36:21;;;;;;;20.75;15.88;;;742.60;563.20;;;;;;4821061;29;20097;-68
2021/03/27 12:39:14;;;;;;;24.38;18.08;;;717.00;563.20;;;;;;4837030;29;20030;-68
2021/03/27 12:41:59;;;;;;;21.00;16.50;;;717.00;563.20;;;;;;4837053;29;20040;-67
2021/03/27 12:44:41;;;;;;;22.00;18.10;;;716.90;588.80;;;;;;4821287;29;20038;-67
2021/03/27 12:47:33;;;;;;;22.58;17.10;;;717.40;563.20;;;;;;4836600;29;20080;-70
2021/03/27 12:50:46;;;;;;;26.00;20.13;;;717.50;563.20;;;;;;4780999;30;20049;-68
2021/03/27 12:53:26;;;;;;;22.15;16.13;;;717.10;588.80;;;;;;4764022;30;20048;-68
2021/03/27 12:56:10;;;;;;;19.42;16.98;;;716.80;563.20;;;;;;4761393;30;20734;-68
2021/03/27 12:58:44;;;;;;;24.33;17.70;;;691.20;588.80;;;;;;4763404;30;20032;-68
2021/03/27 13:01:45;;;;;;;26.33;19.70;;;665.80;640.00;;;;;;4763457;30;20574;-68
2021/03/27 13:04:30;;;;;;;20.65;15.10;;;666.00;614.40;;;;;;4760714;30;20055;-69
2021/03/27 13:07:20;;;;;;;26.38;19.00;;;666.10;614.40;;;;;;4768722;30;20096;-69
2021/03/27 13:09:56;;;;;;;22.35;16.05;;;665.80;614.40;;;;;;4764754;30;20638;-69
2021/03/27 13:12:33;;;;;;;25.85;21.95;;;665.70;640.00;;;;;;4763960;30;20036;-68
2021/03/27 13:15:53;;;;;;;22.05;16.45;;;640.60;640.00;;;;;;4764445;30;20108;-67
2021/03/27 13:18:32;;;;;;;22.27;16.65;;;640.60;614.40;;;;;;4750269;30;20043;-68
2021/03/27 13:21:09;;;;;;;24.42;18.08;;;640.40;640.00;;;;;;4762506;30;20044;-68
2021/03/27 13:23:43;;;;;;;22.73;17.23;;;640.60;640.00;;;;;;4764884;30;20048;-67